Oluja — V7QE8 — position and weather

sailwx.info

Track history (hours):
 
Tides and Currents Weather Stations Pressure Air Temp Water Temp Dewpoint Dewpoint Depression Visibility Wind Speed Wind Dir Waves Ship Positions

Oluja

Last reported at 2016-Nov-19 22:32 UTC. Time now 2016-Dec-11 10:06 UTC.
Position N 36°25' E 014°37'.
Warning: this ship's position is 21 days out of date.

Length 188 m; draft 9.2 m.

Type: Cargo ship. MMSI: 538003345.

Date/timePositionNaut miles runAvg speedWind from/ knotsBaromVisibWave heightAir tempDewpointWater temp
2016-Nov-19 22:32N 36°25' E 014°37'2110.6
2016-Nov-19 20:32N 36°31' E 014°12'1510.7
2016-Nov-19 19:10N 36°37' E 013°55'1710.5
2016-Nov-19 17:33N 36°41' E 013°35'10 9.9
2016-Nov-19 16:33N 36°45' E 013°23'  
2016-Nov-16 06:34N 36°07' W 005°17'283 8.1
2016-Nov-14 19:33N 38°53' W 010°06'2211.2
2016-Nov-14 17:33N 39°15' W 010°06'  
2016-Nov-11 15:33N 50°00' W 002°48'10311.5
2016-Nov-11 06:33N 50°28' W 000°13'9 8.7
2016-Nov-11 05:33N 50°30' E 000°01'9 8.5
2016-Nov-11 04:33N 50°32' E 000°14'4110.2
2016-Nov-11 00:32N 50°54' E 001°08'1010.4
2016-Nov-10 23:33N 51°01' E 001°21'9 9.3
2016-Nov-10 22:33N 51°07' E 001°32'16 7.8
2016-Nov-10 20:33N 51°18' E 001°50'14 7.1
2016-Nov-10 18:33N 51°22' E 002°11'19 9.3
2016-Nov-10 16:34N 51°22' E 002°41'9 8.8
2016-Nov-10 15:33N 51°23' E 002°55'34 8.4
2016-Nov-10 11:33N 51°20' E 003°49'4 4.2
2016-Nov-10 10:33N 51°15' E 003°50'6 5.9
2016-Nov-10 09:33N 51°10' E 003°47'4 4.4
2016-Nov-10 08:33N 51°06' E 003°45'0 0.1
2016-Nov-10 07:32N 51°06' E 003°45'0 0.0
2016-Nov-10 06:32N 51°06' E 003°45'0 0.0
2016-Nov-10 05:32N 51°06' E 003°45'0 0.0
2016-Nov-10 04:32N 51°06' E 003°45'0 0.0
2016-Nov-10 00:33N 51°06' E 003°45'0 0.0
2016-Nov-09 22:33N 51°06' E 003°45'  
Track history (hours):
 
Tides and Currents Weather Stations Pressure Air Temp Water Temp Dewpoint Dewpoint Depression Visibility Wind Speed Wind Dir Waves Ship Positions

Oluja

Last reported at 2016-Nov-19 22:32 UTC. Time now 2016-Dec-11 10:06 UTC.
Position N 36°25' E 014°37'.
Warning: this ship's position is 21 days out of date.

Length 188 m; draft 9.2 m.

Type: Cargo ship. MMSI: 538003345.

Date/timePositionNaut miles runAvg speedWind from/ knotsBaromVisibWave heightAir tempDewpointWater temp
2016-Nov-19 22:32N 36°25' E 014°37'2110.6
2016-Nov-19 20:32N 36°31' E 014°12'1510.7
2016-Nov-19 19:10N 36°37' E 013°55'1710.5
2016-Nov-19 17:33N 36°41' E 013°35'10 9.9
2016-Nov-19 16:33N 36°45' E 013°23'  
2016-Nov-16 06:34N 36°07' W 005°17'283 8.1
2016-Nov-14 19:33N 38°53' W 010°06'2211.2
2016-Nov-14 17:33N 39°15' W 010°06'  
2016-Nov-11 15:33N 50°00' W 002°48'10311.5
2016-Nov-11 06:33N 50°28' W 000°13'9 8.7
2016-Nov-11 05:33N 50°30' E 000°01'9 8.5
2016-Nov-11 04:33N 50°32' E 000°14'4110.2
2016-Nov-11 00:32N 50°54' E 001°08'1010.4
2016-Nov-10 23:33N 51°01' E 001°21'9 9.3
2016-Nov-10 22:33N 51°07' E 001°32'16 7.8
2016-Nov-10 20:33N 51°18' E 001°50'14 7.1
2016-Nov-10 18:33N 51°22' E 002°11'19 9.3
2016-Nov-10 16:34N 51°22' E 002°41'9 8.8
2016-Nov-10 15:33N 51°23' E 002°55'34 8.4
2016-Nov-10 11:33N 51°20' E 003°49'4 4.2
2016-Nov-10 10:33N 51°15' E 003°50'6 5.9
2016-Nov-10 09:33N 51°10' E 003°47'4 4.4
2016-Nov-10 08:33N 51°06' E 003°45'0 0.1
2016-Nov-10 07:32N 51°06' E 003°45'0 0.0
2016-Nov-10 06:32N 51°06' E 003°45'0 0.0
2016-Nov-10 05:32N 51°06' E 003°45'0 0.0
2016-Nov-10 04:32N 51°06' E 003°45'0 0.0
2016-Nov-10 00:33N 51°06' E 003°45'0 0.0
2016-Nov-09 22:33N 51°06' E 003°45'  

Dump ship's entire track history